CheckWX is a tool to help pilots better visualize weather data.  It is not intended as a substitute for an official pre-flight weather briefing.

11:19:11 UTC

KANB TAF
Anniston Regional Airport
Anniston, Alabama, USA
KANB 191100Z 1911/2006 26004KT 6SM SHRA SCT007 OVC012 TEMPO 1912/1915 3SM SHRA BR OVC007 FM191700 01007KT P6SM OVC012 FM192200 02004KT P6SM OVC035

Feb-19@
11:00 UTC

Feb-19 @ 11:00 UTC

Feb-19@
17:00 UTC

Feb-19 @ 17:00 UTC

KANB 191100Z 1911/2006 26004KT 6SM SHRA SCT007 OVC012
Wind
  • 260° at 4 KTS
Conditions
Rain
Cloud Levels
  • Scattered at 700' AGL
  • Overcast at 1,200' AGL

Feb-19@
12:00 UTC

Feb-19 @ 12:00 UTC

Feb-19@
15:00 UTC

Feb-19 @ 15:00 UTC

TEMPO 1912/1915 3SM SHRA BR OVC007

Temporary

Temporary Changes expected for less than half the time period

Conditions
Rain, Mist
Cloud Levels
  • Overcast at 700' AGL

Feb-19@
17:00 UTC

Feb-19 @ 17:00 UTC

Feb-19@
22:00 UTC

Feb-19 @ 22:00 UTC

FM191700 01007KT P6SM OVC012

From

From Standard forecast or significant change

Wind
  • 010° at 7 KTS
Cloud Levels
  • Overcast at 1,200' AGL

Feb-19@
22:00 UTC

Feb-19 @ 22:00 UTC

Feb-20@
06:00 UTC

Feb-20 @ 06:00 UTC

FM192200 02004KT P6SM OVC035

From

From Standard forecast or significant change

Wind
  • 020° at 4 KTS
Cloud Levels
  • Overcast at 3,500' AGL